createdAt,value
2023-02-17T00:07:01.707Z,210.45
2023-02-17T01:37:33.082Z,248.63
2023-02-17T01:55:12.182Z,251.48
2023-02-17T01:58:18.177Z,239.20
2023-02-17T02:01:19.750Z,242.45
2023-02-17T02:07:39.288Z,252.05
2023-02-17T02:14:21.691Z,261.52
2023-02-17T02:21:01.724Z,245.30
2023-02-17T02:24:11.259Z,230.65
2023-02-17T02:27:14.154Z,247.30
2023-02-17T02:30:25.971Z,255.02
2023-02-17T02:33:36.121Z,250.73
2023-02-17T02:36:23.222Z,251.40
2023-02-17T02:39:16.758Z,243.43
2023-02-17T02:42:41.600Z,229.20
2023-02-17T02:48:25.566Z,241.05
2023-02-17T02:51:28.150Z,246.55
2023-02-17T02:54:52.045Z,234.50
2023-02-17T02:58:32.498Z,240.55
2023-02-17T03:01:33.939Z,253.80
2023-02-17T03:08:12.123Z,250.52
2023-02-17T03:14:29.013Z,251.52
2023-02-17T03:17:34.600Z,246.15
2023-02-17T03:20:23.773Z,252.40
2023-02-17T03:22:54.852Z,258.30
2023-02-17T03:25:23.469Z,265.40
2023-02-17T03:27:54.018Z,253.20
2023-02-17T03:30:22.237Z,250.20
2023-02-17T03:32:50.347Z,254.82
2023-02-17T03:35:25.541Z,252.80
2023-02-17T03:37:55.788Z,262.23
2023-02-17T03:40:29.890Z,270.15
2023-02-17T03:43:00.781Z,263.00
2023-02-17T03:45:40.860Z,261.17
2023-02-17T03:48:17.260Z,265.40
2023-02-17T03:50:59.567Z,270.38
2023-02-17T03:53:39.108Z,257.08
2023-02-17T03:56:18.167Z,270.13
2023-02-17T03:58:47.644Z,251.75
2023-02-17T04:01:16.312Z,264.73
2023-02-17T04:06:53.245Z,266.70
2023-02-17T04:09:27.599Z,265.70
2023-02-17T04:12:02.731Z,264.52
2023-02-17T04:14:36.152Z,259.25
2023-02-17T04:17:08.902Z,241.82
2023-02-17T04:19:41.026Z,256.20
2023-02-17T04:22:09.784Z,259.85
2023-02-17T04:24:44.742Z,253.02
2023-02-17T04:27:12.709Z,242.27
2023-02-17T04:29:45.745Z,257.90
2023-02-17T04:32:22.432Z,255.80
2023-02-17T04:34:58.639Z,262.38
2023-02-17T04:37:32.287Z,258.92
2023-02-17T04:40:00.169Z,262.40
2023-02-17T04:42:27.918Z,260.17
2023-02-17T04:44:55.791Z,275.35
2023-02-17T04:47:35.179Z,246.13
2023-02-17T04:50:06.269Z,255.98
2023-02-17T04:52:34.593Z,249.02
2023-02-17T04:55:03.181Z,248.45
2023-02-17T04:57:34.080Z,236.45
2023-02-17T05:00:02.366Z,245.85
2023-02-17T05:02:46.864Z,247.48
2023-02-17T05:09:59.003Z,238.20
2023-02-17T05:21:34.725Z,244.05
2023-02-17T05:24:02.583Z,244.57
2023-02-17T05:26:33.279Z,246.10
2023-02-17T05:29:01.022Z,247.60
2023-02-17T05:31:29.027Z,249.80
2023-02-17T05:33:59.174Z,245.35
2023-02-17T05:36:47.151Z,244.52
2023-02-17T05:39:15.019Z,246.50
2023-02-17T05:41:43.149Z,248.57
2023-02-17T05:44:14.243Z,253.23
2023-02-17T05:46:42.394Z,239.98
2023-02-17T05:49:17.087Z,246.60
2023-02-17T05:52:06.155Z,241.48
2023-02-17T05:57:28.819Z,245.90
2023-02-17T06:00:11.844Z,232.25
2023-02-17T06:06:25.099Z,243.23
2023-02-17T06:08:52.911Z,239.90
2023-02-17T06:11:20.518Z,224.55
2023-02-17T06:13:48.278Z,249.82
2023-02-17T06:16:16.175Z,253.18
2023-02-17T06:18:46.277Z,252.07
2023-02-17T06:21:14.270Z,255.90
2023-02-17T06:23:44.859Z,240.32
2023-02-17T06:26:12.534Z,231.55
2023-02-17T06:28:40.303Z,229.18
2023-02-17T06:31:07.966Z,230.20
2023-02-17T06:33:55.588Z,237.70
2023-02-17T06:39:48.225Z,242.57
2023-02-17T06:42:17.970Z,232.20
2023-02-17T06:57:34.409Z,242.45
2023-02-17T07:00:31.484Z,241.25
2023-02-17T08:03:23.857Z,257.23
2023-02-17T08:15:42.056Z,242.20
2023-02-17T08:51:52.422Z,233.60
2023-02-17T09:16:30.431Z,264.02
2023-02-17T09:19:58.642Z,259.77
2023-02-17T09:22:32.703Z,276.25
2023-02-17T09:25:13.584Z,274.02
2023-02-17T09:27:54.319Z,272.75
2023-02-17T09:30:23.454Z,280.60
2023-02-17T09:32:57.087Z,258.55
2023-02-17T09:38:15.912Z,262.75
2023-02-17T09:40:50.184Z,259.50
2023-02-17T10:00:25.566Z,234.45
2023-02-17T10:03:17.732Z,237.63
2023-02-17T10:06:08.780Z,240.95
2023-02-17T10:09:01.976Z,235.25
2023-02-17T10:11:51.211Z,244.68
2023-02-17T10:14:57.759Z,233.25
2023-02-17T10:17:57.346Z,230.20
2023-02-17T10:20:32.838Z,233.23
2023-02-17T10:23:24.843Z,214.70
2023-02-17T10:26:23.913Z,230.32
2023-02-17T10:29:23.765Z,216.70
2023-02-17T10:32:24.781Z,220.57
2023-02-17T10:35:11.354Z,207.13
2023-02-17T10:37:49.816Z,214.52
2023-02-17T10:40:29.335Z,199.27
2023-02-17T10:43:06.304Z,198.30
2023-02-17T10:45:49.651Z,196.50
2023-02-17T10:48:36.509Z,206.25
2023-02-17T10:51:06.333Z,199.20
2023-02-17T10:53:45.448Z,193.20
2023-02-17T10:56:42.144Z,201.48
2023-02-17T10:59:31.140Z,204.95
2023-02-17T11:02:38.212Z,188.88
2023-02-17T11:05:09.332Z,195.10
2023-02-17T11:07:41.344Z,188.82
2023-02-17T11:10:28.224Z,193.02
2023-02-17T11:12:58.384Z,195.40
2023-02-17T11:15:44.637Z,186.65
2023-02-17T11:18:21.305Z,182.05
2023-02-17T11:20:55.460Z,174.05
2023-02-17T11:23:25.051Z,184.95
2023-02-17T11:26:10.687Z,177.95
2023-02-17T11:28:40.610Z,173.43
2023-02-17T11:31:24.199Z,166.82
2023-02-17T11:33:52.001Z,161.98
2023-02-17T11:36:29.736Z,160.38
2023-02-17T11:39:16.143Z,162.95
2023-02-17T11:41:46.915Z,153.48
2023-02-17T11:44:32.975Z,161.80
2023-02-17T11:47:29.113Z,152.90
2023-02-17T11:50:31.787Z,155.20
2023-02-17T11:53:31.046Z,135.65
2023-02-17T11:56:10.006Z,129.00
2023-02-17T11:59:02.271Z,123.97
2023-02-17T12:02:07.867Z,114.97
2023-02-17T12:05:12.258Z,95.38
2023-02-17T12:07:45.808Z,96.18
2023-02-17T12:10:57.274Z,81.03
2023-02-17T12:14:18.787Z,83.20
2023-02-17T12:17:25.028Z,76.97
2023-02-17T12:20:20.758Z,69.25
2023-02-17T12:23:15.641Z,71.38
2023-02-17T12:25:57.374Z,70.10
2023-02-17T12:28:27.862Z,66.10
2023-02-17T12:31:30.710Z,65.75
2023-02-17T12:34:13.266Z,66.38
2023-02-17T12:36:42.267Z,72.60
2023-02-17T12:39:23.058Z,67.70
2023-02-17T12:42:00.043Z,66.15
2023-02-17T12:44:32.405Z,61.80
2023-02-17T12:47:15.503Z,63.88
2023-02-17T12:50:09.839Z,64.32
2023-02-17T12:52:41.877Z,58.93
2023-02-17T12:55:20.915Z,56.20
2023-02-17T12:58:14.799Z,59.35
2023-02-17T13:00:50.394Z,60.38
2023-02-17T13:03:21.873Z,54.58
2023-02-17T13:06:19.203Z,55.45
2023-02-17T13:09:08.205Z,50.90
2023-02-17T13:11:36.605Z,51.08
2023-02-17T13:14:23.826Z,45.08
2023-02-17T13:16:51.496Z,43.88
2023-02-17T13:19:33.052Z,47.17
2023-02-17T13:22:02.632Z,46.88
2023-02-17T13:27:33.953Z,46.05
2023-02-17T13:30:26.872Z,38.72
2023-02-17T13:33:21.346Z,40.85
2023-02-17T13:35:49.531Z,41.53
2023-02-17T13:38:33.472Z,38.80
2023-02-17T13:41:04.584Z,43.03
2023-02-17T13:43:41.782Z,43.88
2023-02-17T13:46:30.116Z,43.95
2023-02-17T13:49:04.662Z,39.03
2023-02-17T13:51:37.141Z,41.33
2023-02-17T13:54:08.293Z,44.30
2023-02-17T13:56:37.442Z,38.75
2023-02-17T14:02:36.179Z,40.33
2023-02-17T14:05:21.082Z,40.78
2023-02-17T14:07:50.062Z,35.83
2023-02-17T14:10:26.222Z,34.72
2023-02-17T14:12:58.080Z,39.15
2023-02-17T14:15:28.524Z,40.17
2023-02-17T14:17:56.568Z,32.58
2023-02-17T14:20:33.605Z,36.92
2023-02-17T14:23:13.444Z,32.55
2023-02-17T14:25:46.734Z,31.05
2023-02-17T14:28:21.669Z,35.35
2023-02-17T14:30:50.930Z,30.35
2023-02-17T14:33:23.403Z,28.90
2023-02-17T14:35:56.943Z,30.38
2023-02-17T14:38:29.296Z,31.35
2023-02-17T14:40:57.156Z,34.65
2023-02-17T14:43:25.530Z,29.83
2023-02-17T14:45:53.488Z,33.92
2023-02-17T14:48:21.127Z,33.97
2023-02-17T14:50:54.211Z,31.42
2023-02-17T14:53:36.652Z,32.17
2023-02-17T14:56:33.709Z,33.25
2023-02-17T14:59:03.726Z,30.88
2023-02-17T15:01:32.548Z,31.20
2023-02-17T15:04:03.231Z,36.53
2023-02-17T15:06:39.051Z,38.40
2023-02-17T15:09:21.785Z,31.92
2023-02-17T15:11:49.584Z,32.22
2023-02-17T15:14:23.423Z,33.10
2023-02-17T15:16:51.362Z,29.00
2023-02-17T15:19:28.124Z,31.17
2023-02-17T15:21:57.340Z,37.13
2023-02-17T15:24:31.090Z,39.00
2023-02-17T15:27:02.171Z,30.58
2023-02-17T15:29:35.807Z,35.08
2023-02-17T15:32:24.343Z,29.83
2023-02-17T15:35:00.703Z,33.50
2023-02-17T15:37:37.294Z,50.20
2023-02-17T15:40:27.626Z,49.63
2023-02-17T15:43:05.586Z,33.97
2023-02-17T15:45:35.810Z,34.63
2023-02-17T15:48:20.265Z,40.72
2023-02-17T15:50:50.760Z,43.50
2023-02-17T15:53:21.255Z,39.35
2023-02-17T15:55:55.547Z,40.25
2023-02-17T15:58:23.957Z,43.50
2023-02-17T16:00:57.308Z,39.70
2023-02-17T16:03:31.321Z,45.38
2023-02-17T16:06:00.385Z,37.20
2023-02-17T16:08:28.731Z,35.85
2023-02-17T16:10:59.558Z,36.83
2023-02-17T16:13:36.196Z,36.90
2023-02-17T16:16:16.243Z,31.83
2023-02-17T16:18:44.255Z,31.20
2023-02-17T16:21:12.744Z,32.38
2023-02-17T16:23:43.950Z,33.00
2023-02-17T16:26:24.782Z,33.85
2023-02-17T16:28:52.572Z,46.30
2023-02-17T16:31:20.460Z,38.33
2023-02-17T16:33:48.360Z,36.08
2023-02-17T16:36:19.269Z,39.58
2023-02-17T16:38:50.807Z,37.33
2023-02-17T16:41:20.173Z,33.20
2023-02-17T16:43:47.821Z,35.75
2023-02-17T16:46:29.779Z,39.50
2023-02-17T16:48:58.693Z,37.05
2023-02-17T16:51:26.748Z,38.55
2023-02-17T16:53:54.340Z,38.65
2023-02-17T16:56:27.532Z,35.03
2023-02-17T16:58:55.129Z,39.17
2023-02-17T17:01:24.268Z,40.63
2023-02-17T17:03:51.904Z,36.75
2023-02-17T17:06:25.342Z,37.47
2023-02-17T17:08:54.291Z,39.00
2023-02-17T17:11:24.975Z,38.83
2023-02-17T17:13:53.015Z,47.58
2023-02-17T17:16:28.843Z,42.38
2023-02-17T17:18:56.881Z,46.03
2023-02-17T17:21:24.852Z,35.92
2023-02-17T17:23:52.939Z,34.65
2023-02-17T17:26:39.360Z,36.08
2023-02-17T17:29:08.690Z,37.40
2023-02-17T17:31:39.305Z,36.53
2023-02-17T17:34:07.506Z,38.53
2023-02-17T17:36:43.883Z,44.28
2023-02-17T17:39:17.678Z,45.80
2023-02-17T17:41:46.001Z,44.90
2023-02-17T17:44:14.780Z,47.20
2023-02-17T17:46:42.609Z,51.70
2023-02-17T17:49:13.745Z,49.00
2023-02-17T17:51:41.808Z,46.92
2023-02-17T17:54:09.859Z,46.15
2023-02-17T17:56:42.968Z,52.13
2023-02-17T17:59:12.066Z,49.92
2023-02-17T18:01:45.889Z,54.75
2023-02-17T18:04:22.661Z,50.67
2023-02-17T18:06:53.957Z,52.13
2023-02-17T18:09:32.276Z,52.75
2023-02-17T18:12:04.465Z,49.03
2023-02-17T18:14:32.533Z,56.55
2023-02-17T18:17:00.439Z,50.42
2023-02-17T18:19:30.632Z,55.97
2023-02-17T18:21:58.424Z,64.32
2023-02-17T18:24:25.945Z,60.95
2023-02-17T18:27:18.992Z,70.30
2023-02-17T18:30:01.365Z,69.97
2023-02-17T18:32:29.622Z,68.70
2023-02-17T18:34:58.908Z,68.60
2023-02-17T18:37:42.199Z,71.60
2023-02-17T18:40:16.318Z,75.07
2023-02-17T18:42:45.616Z,73.55
2023-02-17T18:45:15.306Z,79.63
2023-02-17T18:47:43.482Z,80.65
2023-02-17T18:50:45.356Z,78.75
2023-02-17T18:57:01.944Z,99.85
2023-02-17T18:59:59.496Z,86.85
2023-02-17T19:05:43.822Z,91.63
2023-02-17T19:08:12.873Z,101.43
2023-02-17T19:11:11.207Z,96.53
2023-02-17T19:14:02.780Z,92.13
2023-02-17T19:16:37.488Z,99.20
2023-02-17T19:19:08.371Z,93.15
2023-02-17T19:21:49.666Z,91.40
2023-02-17T19:24:17.543Z,98.93
2023-02-17T19:27:06.016Z,99.65
2023-02-17T19:29:36.441Z,106.63
2023-02-17T19:32:05.387Z,95.32
2023-02-17T19:34:39.240Z,114.25
2023-02-17T19:37:07.760Z,103.72
2023-02-17T19:39:36.185Z,103.45
2023-02-17T19:42:04.488Z,96.13
2023-02-17T19:44:32.672Z,102.82
2023-02-17T19:47:03.341Z,93.30
2023-02-17T19:49:30.864Z,94.28
2023-02-17T19:51:58.412Z,100.55
2023-02-17T19:54:25.986Z,92.45
2023-02-17T19:56:53.736Z,93.97
2023-02-17T19:59:21.256Z,99.30
2023-02-17T20:01:51.433Z,90.95
2023-02-17T20:04:20.418Z,91.95
2023-02-17T20:06:55.984Z,97.82
2023-02-17T20:09:36.071Z,98.30
2023-02-17T20:12:03.979Z,93.80
2023-02-17T20:14:44.878Z,100.32
2023-02-17T20:17:12.821Z,95.28
2023-02-17T20:19:40.489Z,95.88
2023-02-17T20:22:17.641Z,92.95
2023-02-17T20:24:57.794Z,105.65
2023-02-17T20:27:29.398Z,114.67
2023-02-17T20:30:02.131Z,99.97
2023-02-17T20:32:32.459Z,97.72
2023-02-17T20:35:00.645Z,103.93
2023-02-17T20:37:28.813Z,105.22
2023-02-17T20:39:56.809Z,99.03
2023-02-17T20:42:24.999Z,108.75
2023-02-17T20:44:54.705Z,109.07
2023-02-17T20:47:22.312Z,97.97
2023-02-17T20:49:50.190Z,96.03
2023-02-17T20:52:19.025Z,101.47
2023-02-17T20:54:47.343Z,96.28
2023-02-17T20:57:15.337Z,96.20
2023-02-17T20:59:43.109Z,97.28
2023-02-17T21:02:14.594Z,97.88
2023-02-17T21:04:42.652Z,106.20
2023-02-17T21:07:12.224Z,99.93
2023-02-17T21:09:39.994Z,106.15
2023-02-17T21:12:07.947Z,100.80
2023-02-17T21:14:35.567Z,95.55
2023-02-17T21:17:03.083Z,105.22
2023-02-17T21:19:30.745Z,111.22
2023-02-17T21:21:58.714Z,99.28
2023-02-17T21:24:27.948Z,103.28
2023-02-17T21:26:55.389Z,99.47
2023-02-17T21:29:22.978Z,98.95
2023-02-17T21:31:54.236Z,104.97
2023-02-17T21:34:22.246Z,102.70
2023-02-17T21:36:49.971Z,111.07
2023-02-17T21:39:17.465Z,98.95
2023-02-17T21:41:44.985Z,104.55
2023-02-17T21:44:31.275Z,104.05
2023-02-17T21:46:59.212Z,101.50
2023-02-17T21:49:26.856Z,104.95
2023-02-17T21:51:54.616Z,105.13
2023-02-17T21:54:22.312Z,99.57
2023-02-17T21:56:49.838Z,103.93
2023-02-17T21:59:17.344Z,98.45
2023-02-17T22:01:44.844Z,103.97
2023-02-17T22:04:12.371Z,96.90
2023-02-17T22:06:41.685Z,93.00
2023-02-17T22:09:11.962Z,107.13
2023-02-17T22:11:42.073Z,95.30
2023-02-17T22:14:13.653Z,96.18
2023-02-17T22:16:41.525Z,95.55
2023-02-17T22:19:13.248Z,95.28
2023-02-17T22:21:40.825Z,94.43
2023-02-17T22:24:08.503Z,98.40
2023-02-17T22:26:36.170Z,96.80
2023-02-17T22:29:05.475Z,94.82
2023-02-17T22:31:35.541Z,98.72
2023-02-17T22:34:09.588Z,97.38
2023-02-17T22:36:37.557Z,96.43
2023-02-17T22:39:07.061Z,89.30
2023-02-17T22:41:35.720Z,86.18
2023-02-17T22:44:04.048Z,87.07
2023-02-17T22:46:31.862Z,95.93
2023-02-17T22:49:00.081Z,86.45
2023-02-17T22:51:34.777Z,89.07
2023-02-17T22:54:03.385Z,93.07
2023-02-17T22:56:31.827Z,91.25
2023-02-17T22:59:04.730Z,89.95
2023-02-17T23:01:34.450Z,94.10
2023-02-17T23:04:02.327Z,98.05
2023-02-17T23:06:33.376Z,89.20
2023-02-17T23:09:02.076Z,98.88
2023-02-17T23:11:50.959Z,99.32
2023-02-17T23:14:28.717Z,93.60
2023-02-17T23:16:59.938Z,99.13
2023-02-17T23:19:28.071Z,102.18
2023-02-17T23:21:59.109Z,92.32
2023-02-17T23:24:27.830Z,93.82
2023-02-17T23:26:57.373Z,100.80
2023-02-17T23:29:25.182Z,96.47
2023-02-17T23:31:55.725Z,102.47
2023-02-17T23:34:23.444Z,101.55
2023-02-17T23:36:51.130Z,102.72
2023-02-17T23:39:19.174Z,102.25
2023-02-17T23:41:46.910Z,97.20
2023-02-17T23:44:20.561Z,102.55
2023-02-17T23:46:48.129Z,101.47
2023-02-17T23:49:17.630Z,97.80
2023-02-17T23:51:46.885Z,98.15
2023-02-17T23:54:15.367Z,94.25
2023-02-17T23:56:43.671Z,104.57
2023-02-17T23:59:11.912Z,98.20
